createdAt,value
2022-12-15T00:01:03.691Z,94592.88
2022-12-15T00:03:50.146Z,94597.91
2022-12-15T00:06:36.047Z,94609.72
2022-12-15T00:09:25.063Z,94612.22
2022-12-15T00:12:13.708Z,94610.59
2022-12-15T00:14:59.854Z,94608.19
2022-12-15T00:17:47.660Z,94614.16
2022-12-15T00:20:33.788Z,94614.03
2022-12-15T00:23:26.611Z,94614.84
2022-12-15T00:26:12.884Z,94615.75
2022-12-15T00:29:04.957Z,94607.28
2022-12-15T00:31:51.348Z,94613.22
2022-12-15T00:34:38.568Z,94620.09
2022-12-15T00:37:24.437Z,94622.81
2022-12-15T00:40:04.943Z,94625.25
2022-12-15T00:42:34.028Z,94636.03
2022-12-15T00:45:02.817Z,94638.34
2022-12-15T00:47:33.046Z,94639.06
2022-12-15T00:50:20.100Z,94644.81
2022-12-15T00:53:06.480Z,94644.13
2022-12-15T00:55:52.736Z,94651.69
2022-12-15T00:58:38.831Z,94655.94
2022-12-15T01:01:25.599Z,94658.47
2022-12-15T01:04:14.818Z,94664.50
2022-12-15T01:07:02.099Z,94660.47
2022-12-15T01:09:48.152Z,94668.94
2022-12-15T01:12:34.296Z,94678.63
2022-12-15T01:15:20.342Z,94689.31
2022-12-15T01:18:06.144Z,94691.63
2022-12-15T01:20:34.832Z,94685.47
2022-12-15T01:23:05.151Z,94681.81
2022-12-15T01:25:34.106Z,94686.34
2022-12-15T01:28:02.652Z,94700.63
2022-12-15T01:30:31.557Z,94697.50
2022-12-15T01:33:02.204Z,94696.59
2022-12-15T01:35:30.826Z,94699.91
2022-12-15T01:37:59.689Z,94704.25
2022-12-15T01:40:50.377Z,94707.88
2022-12-15T01:43:21.052Z,94704.53
2022-12-15T01:45:53.650Z,94702.03
2022-12-15T01:48:30.262Z,94707.06
2022-12-15T01:51:15.490Z,94703.94
2022-12-15T01:53:50.202Z,94706.75
2022-12-15T01:56:37.289Z,94703.22
2022-12-15T01:59:09.349Z,94696.47
2022-12-15T02:01:37.809Z,94700.69
2022-12-15T02:04:06.698Z,94706.66
2022-12-15T02:06:35.038Z,94718.44
2022-12-15T02:09:04.309Z,94715.00
2022-12-15T02:11:46.657Z,94714.56
2022-12-15T02:14:54.831Z,94733.22
2022-12-15T02:17:29.712Z,94733.22
2022-12-15T02:20:21.266Z,94746.03
2022-12-15T02:23:08.496Z,94740.06
2022-12-15T02:25:50.789Z,94741.78
2022-12-15T02:28:25.014Z,94743.31
2022-12-15T02:31:14.386Z,94741.56
2022-12-15T02:33:47.780Z,94742.59
2022-12-15T02:36:20.212Z,94749.22
2022-12-15T02:38:51.836Z,94756.16
2022-12-15T02:41:39.830Z,94751.94
2022-12-15T02:44:12.242Z,94746.91
2022-12-15T02:46:54.768Z,94753.59
2022-12-15T02:49:32.683Z,94766.88
2022-12-15T02:52:10.242Z,94765.28
2022-12-15T02:54:53.199Z,94766.19
2022-12-15T02:57:26.930Z,94762.13
2022-12-15T03:00:02.271Z,94758.53
2022-12-15T03:02:34.785Z,94758.63
2022-12-15T03:05:03.387Z,94771.22
2022-12-15T03:07:31.972Z,94796.44
2022-12-15T03:10:02.667Z,94783.19
2022-12-15T03:12:31.219Z,94793.19
2022-12-15T03:14:59.689Z,94793.09
2022-12-15T03:17:28.091Z,94787.31
2022-12-15T03:19:57.896Z,94795.81
2022-12-15T03:22:32.712Z,94794.97
2022-12-15T03:25:01.058Z,94791.75
2022-12-15T03:27:29.638Z,94799.41
2022-12-15T03:29:58.491Z,94794.34
2022-12-15T03:32:27.831Z,94807.78
2022-12-15T03:34:57.908Z,94823.69
2022-12-15T03:37:26.640Z,94820.28
2022-12-15T03:39:55.058Z,94823.53
2022-12-15T03:42:43.870Z,94814.22
2022-12-15T03:45:12.451Z,94821.88
2022-12-15T03:47:42.371Z,94826.03
2022-12-15T03:50:14.453Z,94831.88
2022-12-15T03:52:43.103Z,94832.88
2022-12-15T03:55:12.432Z,94841.41
2022-12-15T03:57:41.188Z,94846.47
2022-12-15T04:00:10.362Z,94845.72
2022-12-15T04:02:39.306Z,94852.50
2022-12-15T04:05:08.584Z,94849.97
2022-12-15T04:07:48.020Z,94856.72
2022-12-15T04:10:16.485Z,94852.59
2022-12-15T04:12:45.003Z,94861.84
2022-12-15T04:15:13.651Z,94851.44
2022-12-15T04:17:43.174Z,94866.06
2022-12-15T04:20:11.463Z,94878.69
2022-12-15T04:22:49.489Z,94883.00
2022-12-15T04:25:37.075Z,94896.84
2022-12-15T04:28:34.343Z,94900.28
2022-12-15T04:31:22.963Z,94902.06
2022-12-15T04:34:10.639Z,94903.78
2022-12-15T04:36:57.414Z,94906.22
2022-12-15T04:39:44.642Z,94911.25
2022-12-15T04:42:31.063Z,94907.19
2022-12-15T04:45:20.851Z,94903.84
2022-12-15T04:48:07.656Z,94913.06
2022-12-15T04:50:53.934Z,94919.97
2022-12-15T04:53:40.064Z,94917.53
2022-12-15T04:56:33.984Z,94922.41
2022-12-15T04:59:20.618Z,94924.91
2022-12-15T05:02:06.821Z,94929.41
2022-12-15T05:04:52.942Z,94935.25
2022-12-15T05:07:39.037Z,94933.44
2022-12-15T05:10:26.316Z,94934.91
2022-12-15T05:13:14.464Z,94939.13
2022-12-15T05:16:00.530Z,94940.13
2022-12-15T05:18:46.709Z,94941.00
2022-12-15T05:21:33.138Z,94942.72
2022-12-15T05:24:19.122Z,94948.50
2022-12-15T05:27:05.342Z,94953.44
2022-12-15T05:29:52.782Z,94956.75
2022-12-15T05:32:21.594Z,94957.66
2022-12-15T05:34:50.382Z,94960.47
2022-12-15T05:37:19.026Z,94957.94
2022-12-15T05:39:47.813Z,94961.25
2022-12-15T05:42:16.493Z,94961.34
2022-12-15T05:44:46.522Z,94974.75
2022-12-15T05:47:15.120Z,94988.16
2022-12-15T05:49:43.754Z,94974.75
2022-12-15T05:52:12.513Z,94971.50
2022-12-15T05:54:41.080Z,94988.81
2022-12-15T05:57:15.861Z,94989.50
2022-12-15T05:59:45.892Z,94987.91
2022-12-15T06:02:14.652Z,95009.75
2022-12-15T06:04:43.801Z,95010.66
2022-12-15T06:07:12.654Z,95015.59
2022-12-15T06:09:41.311Z,95018.03
2022-12-15T06:12:12.689Z,95023.00
2022-12-15T06:14:41.179Z,95022.91
2022-12-15T06:17:11.156Z,95022.91
2022-12-15T06:19:39.470Z,95022.03
2022-12-15T06:22:08.214Z,95032.88
2022-12-15T06:24:37.018Z,95030.31
2022-12-15T06:27:06.195Z,95034.34
2022-12-15T06:29:35.087Z,95037.78
2022-12-15T06:32:04.762Z,95036.97
2022-12-15T06:34:34.864Z,95030.31
2022-12-15T06:37:04.046Z,95026.97
2022-12-15T06:39:32.687Z,95028.66
2022-12-15T06:42:01.807Z,95030.38
2022-12-15T06:44:30.501Z,95039.56
2022-12-15T06:46:59.277Z,95030.53
2022-12-15T06:49:28.035Z,95029.56
2022-12-15T06:51:58.555Z,95041.34
2022-12-15T06:54:27.255Z,95046.56
2022-12-15T06:56:58.437Z,95049.09
2022-12-15T06:59:26.941Z,95052.34
2022-12-15T07:01:55.632Z,95060.59
2022-12-15T07:04:24.139Z,95053.84
2022-12-15T07:06:52.574Z,95054.59
2022-12-15T07:09:22.688Z,95060.38
2022-12-15T07:11:52.684Z,95056.06
2022-12-15T07:14:21.097Z,95061.00
2022-12-15T07:17:14.777Z,95060.91
2022-12-15T07:19:43.818Z,95062.44
2022-12-15T07:22:12.436Z,95059.91
2022-12-15T07:24:42.478Z,95066.06
2022-12-15T07:27:11.186Z,95062.81
2022-12-15T07:29:39.528Z,95070.44
2022-12-15T07:32:07.990Z,95077.75
2022-12-15T07:34:36.538Z,95079.28
2022-12-15T07:37:04.889Z,95083.25
2022-12-15T07:39:33.697Z,95091.63
2022-12-15T07:42:03.658Z,95082.47
2022-12-15T07:44:32.293Z,95092.34
2022-12-15T07:47:01.446Z,95101.44
2022-12-15T07:49:30.283Z,95094.44
2022-12-15T07:52:14.653Z,95106.91
2022-12-15T07:54:43.761Z,95096.53
2022-12-15T07:57:14.300Z,95115.66
2022-12-15T07:59:42.630Z,95118.91
2022-12-15T08:02:12.279Z,95115.28
2022-12-15T08:04:41.441Z,95110.06
2022-12-15T08:07:12.445Z,95117.72
2022-12-15T08:09:40.924Z,95116.75
2022-12-15T08:12:09.700Z,95118.38
2022-12-15T08:14:40.009Z,95121.63
2022-12-15T08:17:10.577Z,95117.50
2022-12-15T08:19:39.239Z,95129.28
2022-12-15T08:22:08.180Z,95117.31
2022-12-15T08:24:36.767Z,95123.97
2022-12-15T08:27:05.094Z,95134.97
2022-12-15T08:29:50.730Z,95127.31
2022-12-15T08:32:21.417Z,95124.59
2022-12-15T08:34:50.549Z,95117.69
2022-12-15T08:38:09.374Z,95118.41
2022-12-15T08:40:37.677Z,95125.00
2022-12-15T08:43:06.502Z,95114.66
2022-12-15T08:45:36.107Z,95114.72
2022-12-15T08:48:06.577Z,95119.22
2022-12-15T08:50:35.009Z,95131.66
2022-12-15T08:53:29.562Z,95129.88
2022-12-15T08:55:52.214Z,95119.41
2022-12-15T08:58:21.664Z,95123.22
2022-12-15T09:00:50.284Z,95135.75
2022-12-15T09:03:20.604Z,95144.03
2022-12-15T09:05:49.034Z,95143.22
2022-12-15T09:08:18.514Z,95143.22
2022-12-15T09:10:47.284Z,95134.59
2022-12-15T09:13:21.374Z,95141.88
2022-12-15T09:16:10.994Z,95128.19
2022-12-15T09:18:43.808Z,95149.66
2022-12-15T09:21:14.276Z,95139.81
2022-12-15T09:23:43.186Z,95135.31
2022-12-15T09:26:12.981Z,95141.09
2022-12-15T09:28:41.629Z,95146.16
2022-12-15T09:31:12.140Z,95168.06
2022-12-15T09:33:42.701Z,95174.66
2022-12-15T09:36:15.755Z,95182.31
2022-12-15T09:38:44.916Z,95173.91
2022-12-15T09:41:21.715Z,95166.31
2022-12-15T09:43:55.137Z,95180.84
2022-12-15T09:46:29.579Z,95176.63
2022-12-15T09:49:06.074Z,95173.19
2022-12-15T09:51:36.781Z,95183.38
2022-12-15T09:54:06.524Z,95187.44
2022-12-15T09:56:41.701Z,95182.84
2022-12-15T09:59:23.968Z,95191.69
2022-12-15T10:01:58.454Z,95189.28
2022-12-15T10:04:35.057Z,95180.97
2022-12-15T10:07:09.959Z,95170.78
2022-12-15T10:09:39.001Z,95173.41
2022-12-15T10:12:11.740Z,95166.16
2022-12-15T10:14:44.218Z,95164.47
2022-12-15T10:17:22.716Z,95164.28
2022-12-15T10:19:56.682Z,95177.00
2022-12-15T10:22:27.557Z,95175.47
2022-12-15T10:25:12.202Z,95177.81
2022-12-15T10:27:58.249Z,95171.66
2022-12-15T10:30:27.150Z,95173.84
2022-12-15T10:33:03.862Z,95166.19
2022-12-15T10:35:35.557Z,95165.34
2022-12-15T10:38:05.902Z,95150.84
2022-12-15T10:40:50.282Z,95150.19
2022-12-15T10:43:27.691Z,95150.53
2022-12-15T10:46:06.105Z,95156.66
2022-12-15T10:48:35.085Z,95147.66
2022-12-15T10:51:20.559Z,95161.00
2022-12-15T10:53:50.987Z,95140.69
2022-12-15T10:56:32.354Z,95137.97
2022-12-15T10:59:03.861Z,95134.28
2022-12-15T11:01:34.636Z,95135.25
2022-12-15T11:04:04.153Z,95133.31
2022-12-15T11:06:37.163Z,95136.81
2022-12-15T11:09:11.700Z,95140.28
2022-12-15T11:12:05.587Z,95130.97
2022-12-15T11:14:45.725Z,95118.00
2022-12-15T11:17:18.314Z,95119.81
2022-12-15T11:19:56.721Z,95113.06
2022-12-15T11:22:36.347Z,95123.97
2022-12-15T11:25:07.981Z,95123.84
2022-12-15T11:27:39.103Z,95120.34
2022-12-15T11:30:16.816Z,95124.88
2022-12-15T11:32:48.918Z,95119.47
2022-12-15T11:35:21.304Z,95123.91
2022-12-15T11:37:54.174Z,95110.09
2022-12-15T11:40:36.977Z,95107.06
2022-12-15T11:43:18.689Z,95103.13
2022-12-15T11:45:53.489Z,95105.63
2022-12-15T11:48:28.156Z,95095.44
2022-12-15T11:51:00.601Z,95092.47
2022-12-15T11:53:58.093Z,95098.59
2022-12-15T11:56:31.493Z,95104.56
2022-12-15T11:59:38.051Z,95102.13
2022-12-15T12:02:21.670Z,95106.53
2022-12-15T12:05:00.537Z,95108.38
2022-12-15T12:07:38.465Z,95112.94
2022-12-15T12:10:21.880Z,95107.84
2022-12-15T12:12:55.323Z,95121.34
2022-12-15T12:15:29.090Z,95114.25
2022-12-15T12:18:04.001Z,95121.19
2022-12-15T12:20:41.837Z,95132.00
2022-12-15T12:23:17.590Z,95131.91
2022-12-15T12:26:02.789Z,95129.47
2022-12-15T12:28:37.989Z,95133.81
2022-12-15T12:31:07.495Z,95122.06
2022-12-15T12:33:39.721Z,95127.84
2022-12-15T12:36:16.426Z,95133.16
2022-12-15T12:38:50.820Z,95139.03
2022-12-15T12:41:28.052Z,95138.75
2022-12-15T12:44:07.970Z,95141.03
2022-12-15T12:46:41.339Z,95130.94
2022-12-15T12:49:15.290Z,95132.53
2022-12-15T12:51:51.282Z,95134.16
2022-12-15T12:54:58.696Z,95130.00
2022-12-15T12:57:40.731Z,95125.16
2022-12-15T13:00:20.985Z,95122.63
2022-12-15T13:03:04.553Z,95114.03
2022-12-15T13:05:34.172Z,95118.22
2022-12-15T13:08:29.513Z,95109.91
2022-12-15T13:10:58.021Z,95106.47
2022-12-15T13:13:42.435Z,95114.03
2022-12-15T13:16:14.837Z,95122.44
2022-12-15T13:19:03.771Z,95132.72
2022-12-15T13:21:54.928Z,95131.25
2022-12-15T13:24:34.961Z,95127.91
2022-12-15T13:27:20.957Z,95124.59
2022-12-15T13:29:59.083Z,95112.88
2022-12-15T13:32:35.138Z,95131.09
2022-12-15T13:35:21.421Z,95139.63
2022-12-15T13:37:52.581Z,95148.22
2022-12-15T13:40:58.743Z,95149.69
2022-12-15T13:43:41.519Z,95150.25
2022-12-15T13:46:18.546Z,95149.34
2022-12-15T13:48:49.263Z,95145.84
2022-12-15T13:51:33.971Z,95142.53
2022-12-15T13:54:05.806Z,95135.09
2022-12-15T13:56:50.678Z,95131.88
2022-12-15T13:59:29.174Z,95141.88
2022-12-15T14:01:59.351Z,95138.53
2022-12-15T14:04:28.224Z,95142.03
2022-12-15T14:06:58.849Z,95141.47
2022-12-15T14:09:45.344Z,95144.91
2022-12-15T14:12:15.037Z,95146.38
2022-12-15T14:14:47.235Z,95139.69
2022-12-15T14:17:20.413Z,95140.69
2022-12-15T14:19:51.447Z,95138.41
2022-12-15T14:22:28.592Z,95146.78
2022-12-15T14:25:03.723Z,95151.03
2022-12-15T14:27:34.084Z,95142.72
2022-12-15T14:30:22.621Z,95136.25
2022-12-15T14:32:55.543Z,95125.44
2022-12-15T14:35:27.801Z,95115.44
2022-12-15T14:37:59.038Z,95113.88
2022-12-15T14:40:29.488Z,95112.25
2022-12-15T14:42:58.498Z,95114.88
2022-12-15T14:45:29.431Z,95115.84
2022-12-15T14:50:58.772Z,95112.59
2022-12-15T14:53:27.697Z,95109.19
2022-12-15T14:55:56.632Z,95110.06
2022-12-15T14:58:31.463Z,95112.59
2022-12-15T15:01:00.740Z,95116.28
2022-12-15T15:03:37.637Z,95112.94
2022-12-15T15:06:08.968Z,95097.19
2022-12-15T15:08:43.708Z,95093.75
2022-12-15T15:11:24.348Z,95091.19
2022-12-15T15:13:56.276Z,95076.94
2022-12-15T15:16:25.370Z,95089.53
2022-12-15T15:18:56.743Z,95086.28
2022-12-15T15:21:26.978Z,95081.25
2022-12-15T15:24:03.552Z,95091.31
2022-12-15T15:26:33.049Z,95117.44
2022-12-15T15:29:02.641Z,95123.38
2022-12-15T15:31:41.023Z,95132.88
2022-12-15T15:34:12.292Z,95142.09
2022-12-15T15:36:41.060Z,95151.34
2022-12-15T15:39:15.688Z,95150.63
2022-12-15T15:41:44.437Z,95141.53
2022-12-15T15:44:15.535Z,95144.84
2022-12-15T15:46:48.596Z,95129.03
2022-12-15T15:49:20.856Z,95128.28
2022-12-15T15:51:49.425Z,95134.84
2022-12-15T15:54:36.286Z,95139.00
2022-12-15T15:57:05.428Z,95133.97
2022-12-15T15:59:33.823Z,95133.16
2022-12-15T16:02:02.667Z,95123.97
2022-12-15T16:04:33.541Z,95126.41
2022-12-15T16:07:02.320Z,95122.25
2022-12-15T16:09:30.921Z,95110.38
2022-12-15T16:12:00.837Z,95103.56
2022-12-15T16:14:29.409Z,95106.81
2022-12-15T16:17:00.228Z,95095.09
2022-12-15T16:19:28.965Z,95090.69
2022-12-15T16:21:59.366Z,95089.06
2022-12-15T16:24:34.184Z,95081.03
2022-12-15T16:27:02.980Z,95074.22
2022-12-15T16:29:31.512Z,95079.41
2022-12-15T16:32:00.768Z,95076.97
2022-12-15T16:34:29.326Z,95075.53
2022-12-15T16:36:59.526Z,95077.97
2022-12-15T16:39:30.790Z,95081.47
2022-12-15T16:41:59.717Z,95077.31
2022-12-15T16:44:29.462Z,95078.13
2022-12-15T16:47:02.021Z,95086.59
2022-12-15T16:49:35.225Z,95094.97
2022-12-15T16:52:13.934Z,95095.75
2022-12-15T16:54:42.485Z,95090.91
2022-12-15T16:57:12.414Z,95088.38
2022-12-15T16:59:41.007Z,95083.34
2022-12-15T17:02:27.452Z,95074.16
2022-12-15T17:04:58.496Z,95069.22
2022-12-15T17:07:29.675Z,95063.53
2022-12-15T17:09:59.221Z,95072.06
2022-12-15T17:12:27.678Z,95059.47
2022-12-15T17:14:57.855Z,95058.50
2022-12-15T17:17:32.393Z,95060.84
2022-12-15T17:20:31.184Z,95064.25
2022-12-15T17:23:04.877Z,95068.38
2022-12-15T17:26:18.202Z,95055.78
2022-12-15T17:28:28.937Z,95054.00
2022-12-15T17:30:57.925Z,95054.72
2022-12-15T17:33:28.899Z,95052.22
2022-12-15T17:36:01.438Z,95062.28
2022-12-15T17:38:31.655Z,95060.47
2022-12-15T17:41:00.787Z,95047.97
2022-12-15T17:43:35.335Z,95057.25
2022-12-15T17:46:04.605Z,95058.03
2022-12-15T17:48:33.557Z,95051.41
2022-12-15T17:51:02.677Z,95054.72
2022-12-15T17:53:33.163Z,95037.25
2022-12-15T17:56:02.229Z,95041.31
2022-12-15T17:58:30.805Z,95051.22
2022-12-15T18:00:59.910Z,95057.91
2022-12-15T18:03:29.189Z,95058.69
2022-12-15T18:05:58.268Z,95059.59
2022-12-15T18:08:30.147Z,95059.69
2022-12-15T18:11:00.191Z,95055.53
2022-12-15T18:13:35.038Z,95059.78
2022-12-15T18:16:04.545Z,95054.00
2022-12-15T18:18:35.165Z,95049.94
2022-12-15T18:21:15.533Z,95050.84
2022-12-15T18:23:45.740Z,95038.34
2022-12-15T18:26:16.601Z,95044.88
2022-12-15T18:28:49.836Z,95041.63
2022-12-15T18:31:22.825Z,95035.81
2022-12-15T18:33:51.339Z,95033.03
2022-12-15T18:36:20.796Z,95031.31
2022-12-15T18:38:49.965Z,95009.53
2022-12-15T18:41:21.479Z,95014.56
2022-12-15T18:43:50.102Z,95017.09
2022-12-15T18:46:22.192Z,95019.97
2022-12-15T18:48:50.797Z,95019.97
2022-12-15T18:51:21.701Z,95016.72
2022-12-15T18:53:50.982Z,95010.78
2022-12-15T18:56:21.929Z,94993.16
2022-12-15T18:58:50.745Z,94996.66
2022-12-15T19:01:19.378Z,94996.66
2022-12-15T19:03:48.591Z,94983.06
2022-12-15T19:06:25.760Z,94982.25
2022-12-15T19:08:54.964Z,94977.94
2022-12-15T19:11:31.139Z,94982.16
2022-12-15T19:14:00.605Z,94966.97
2022-12-15T19:16:50.973Z,94953.53
2022-12-15T19:19:37.129Z,94965.25
2022-12-15T19:22:30.180Z,94954.28
2022-12-15T19:24:59.416Z,94951.84
2022-12-15T19:27:29.991Z,94937.44
2022-12-15T19:29:58.397Z,94944.28
2022-12-15T19:32:27.581Z,94951.75
2022-12-15T19:34:56.260Z,94952.56
2022-12-15T19:37:26.755Z,94946.63
2022-12-15T19:39:56.723Z,94934.19
2022-12-15T19:42:32.172Z,94932.69
2022-12-15T19:45:01.717Z,94935.25
2022-12-15T19:47:30.701Z,94945.34
2022-12-15T19:50:00.391Z,94940.25
2022-12-15T19:52:28.876Z,94940.25
2022-12-15T19:54:58.107Z,94950.31
2022-12-15T19:57:28.800Z,94948.50
2022-12-15T19:59:58.714Z,94935.13
2022-12-15T20:02:28.020Z,94930.16
2022-12-15T20:05:22.435Z,94930.16
2022-12-15T20:07:51.221Z,94923.41
2022-12-15T20:10:26.163Z,94926.56
2022-12-15T20:12:58.941Z,94919.38
2022-12-15T20:15:29.428Z,94906.13
2022-12-15T20:17:58.272Z,94920.97
2022-12-15T20:20:31.254Z,94922.84
2022-12-15T20:23:03.305Z,94909.72
2022-12-15T20:25:34.964Z,94913.88
2022-12-15T20:28:04.546Z,94915.38
2022-12-15T20:30:38.392Z,94919.38
2022-12-15T20:33:07.252Z,94914.47
2022-12-15T20:35:37.568Z,94910.97
2022-12-15T20:38:19.353Z,94901.88
2022-12-15T20:40:48.672Z,94895.03
2022-12-15T20:43:19.092Z,94902.06
2022-12-15T20:45:57.762Z,94896.16
2022-12-15T20:48:27.377Z,94893.00
2022-12-15T20:50:56.478Z,94904.69
2022-12-15T20:53:26.886Z,94896.47
2022-12-15T20:55:58.031Z,94892.34
2022-12-15T20:58:32.881Z,94888.91
2022-12-15T21:01:03.491Z,94883.88
2022-12-15T21:03:35.556Z,94870.41
2022-12-15T21:06:10.152Z,94862.91
2022-12-15T21:08:39.138Z,94863.72
2022-12-15T21:11:15.006Z,94861.22
2022-12-15T21:13:44.174Z,94854.66
2022-12-15T21:16:19.802Z,94848.72
2022-12-15T21:19:19.701Z,94842.16
2022-12-15T21:21:39.368Z,94843.59
2022-12-15T21:24:15.394Z,94841.97
2022-12-15T21:26:44.279Z,94831.09
2022-12-15T21:29:14.718Z,94829.47
2022-12-15T21:31:45.377Z,94837.72
2022-12-15T21:34:14.342Z,94853.66
2022-12-15T21:36:44.473Z,94850.31
2022-12-15T21:39:15.832Z,94846.81
2022-12-15T21:41:45.986Z,94843.50
2022-12-15T21:44:15.025Z,94847.56
2022-12-15T21:46:45.052Z,94845.75
2022-12-15T21:49:18.640Z,94839.00
2022-12-15T21:51:49.818Z,94836.47
2022-12-15T21:54:25.997Z,94822.16
2022-12-15T21:56:56.674Z,94826.31
2022-12-15T21:59:26.552Z,94827.13
2022-12-15T22:02:27.038Z,94831.34
2022-12-15T22:04:55.858Z,94823.78
2022-12-15T22:07:24.409Z,94818.13
2022-12-15T22:09:53.157Z,94818.13
2022-12-15T22:12:23.443Z,94818.94
2022-12-15T22:14:52.506Z,94819.84
2022-12-15T22:17:22.856Z,94829.00
2022-12-15T22:19:53.288Z,94824.16
2022-12-15T22:22:21.678Z,94821.53
2022-12-15T22:24:50.549Z,94810.59
2022-12-15T22:27:21.208Z,94809.56
2022-12-15T22:32:43.439Z,94808.41
2022-12-15T22:35:19.044Z,94805.78
2022-12-15T22:37:49.904Z,94807.41
2022-12-15T22:40:18.550Z,94802.38
2022-12-15T22:42:51.890Z,94803.81
2022-12-15T22:45:22.214Z,94813.88
2022-12-15T22:47:51.178Z,94801.38
2022-12-15T22:50:24.081Z,94783.75
2022-12-15T22:52:52.772Z,94777.00
2022-12-15T22:55:24.632Z,94790.50
2022-12-15T22:57:58.695Z,94775.47
2022-12-15T23:00:27.557Z,94781.31
2022-12-15T23:05:34.528Z,94773.75
2022-12-15T23:08:03.175Z,94774.75
2022-12-15T23:10:48.744Z,94767.38
2022-12-15T23:13:17.501Z,94764.31
2022-12-15T23:16:04.142Z,94752.72
2022-12-15T23:18:32.697Z,94755.41
2022-12-15T23:21:02.885Z,94747.88
2022-12-15T23:23:32.645Z,94744.53
2022-12-15T23:26:02.222Z,94740.41
2022-12-15T23:28:30.764Z,94740.78
2022-12-15T23:30:59.690Z,94737.44
2022-12-15T23:33:31.423Z,94727.66
2022-12-15T23:36:02.819Z,94710.72
2022-12-15T23:38:31.530Z,94698.13
2022-12-15T23:43:42.484Z,94677.28
2022-12-15T23:46:11.497Z,94673.97
2022-12-15T23:48:42.085Z,94659.72
2022-12-15T23:51:13.938Z,94637.16
2022-12-15T23:53:49.307Z,94630.44
2022-12-15T23:56:19.378Z,94611.88
2022-12-15T23:58:49.375Z,94600.94
